Pagrindinis puslapis
METAR-TAF:

METAR-TAF

Oro uostai :

Marianhamina, Suomija

platuma: 60-07N, ilguma: 019-54E, Aukštis: 6 m

Dabartinis oras

Ataskaita buvo paskelbta 37 minutes, ne 03:50 UTC
Vėjas 1 kt nuo kintamojo kryptimis
Temperatūra 16°C
Drėgmė 88%
Slėgis 1014 hPa
Matomumas 10 km arba daugiau
nėra debesų žemiau 1500 m ir nėra kamuolinių lietaus debesų

METAR: EFMA 250350Z AUTO VRB01KT CAVOK 16/14 Q1014

Laikas: 07:27 (04:27 UTC)

Prognozė

Ataskaita buvo paskelbta 1 valandą ir 59 minutes, ne 02:28 UTC
Prognozė galioja nuo 25 metu 03 UTC su 25 metu 12 UTC
Vėjas 3 kt iš Rytų/Pietryčių
Matomumas 10 km arba daugiau
nėra debesų žemiau 1500 m ir nėra kamuolinių lietaus debesų
Tikimybė 30%
nuo 25 metu 03 UTC su 25 metu 04 UTC
Matomumas: 2000 m
Rūkas lopais

TAF: EFMA 250228Z 2503/2512 11003KT CAVOK PROB30 2503/2504 2000 BCFG

Orai ataskaitas ir orų prognozės (METAR, TAF).

turimą stotys yra geltonos ir raudonos taškus žemėlapyje.

Perkelti pele per norėdami pamatyti stoties vardą.

Tada spustelėkite, norėdami matyti oro stebėjimo ir prognozės.

Norėdami pakeisti žemėlapį: spustelėkite ant žalios mygtukų su juodo kryžiaus žemyn,; žalią mygtuką su brūkšneliu, jei norite nutolinti; arba žalių rodyklių gretimoms žemėlapius.


METAR-TAF: